sensor_id;sensor_type;location;lat;lon;timestamp;P1;durP1;ratioP1;P2;durP2;ratioP2
9413;SDS011;4746;35.664;139.738;2022-08-11T00:01:20;3.22;;;1.20;;
9413;SDS011;4746;35.664;139.738;2022-08-11T00:03:55;3.97;;;1.15;;
9413;SDS011;4746;35.664;139.738;2022-08-11T00:06:32;4.68;;;1.45;;
9413;SDS011;4746;35.664;139.738;2022-08-11T00:09:04;4.82;;;1.27;;
9413;SDS011;4746;35.664;139.738;2022-08-11T00:14:18;5.30;;;1.73;;
9413;SDS011;4746;35.664;139.738;2022-08-11T00:16:57;3.45;;;1.40;;
9413;SDS011;4746;35.664;139.738;2022-08-11T00:19:43;4.25;;;1.38;;
9413;SDS011;4746;35.664;139.738;2022-08-11T00:22:21;3.33;;;1.42;;
9413;SDS011;4746;35.664;139.738;2022-08-11T00:24:49;3.22;;;1.45;;
9413;SDS011;4746;35.664;139.738;2022-08-11T00:27:18;6.40;;;2.45;;
9413;SDS011;4746;35.664;139.738;2022-08-11T00:29:52;7.05;;;2.85;;
9413;SDS011;4746;35.664;139.738;2022-08-11T00:32:20;8.60;;;3.17;;
9413;SDS011;4746;35.664;139.738;2022-08-11T00:34:48;6.53;;;2.58;;
9413;SDS011;4746;35.664;139.738;2022-08-11T00:37:20;6.38;;;2.40;;
9413;SDS011;4746;35.664;139.738;2022-08-11T00:39:49;5.88;;;2.33;;
9413;SDS011;4746;35.664;139.738;2022-08-11T00:45:51;6.30;;;2.25;;
9413;SDS011;4746;35.664;139.738;2022-08-11T00:49:10;5.05;;;1.58;;
9413;SDS011;4746;35.664;139.738;2022-08-11T01:01:56;6.20;;;1.40;;
9413;SDS011;4746;35.664;139.738;2022-08-11T01:14:14;3.80;;;1.42;;
9413;SDS011;4746;35.664;139.738;2022-08-11T01:20:35;3.10;;;1.60;;
9413;SDS011;4746;35.664;139.738;2022-08-11T01:24:14;7.15;;;1.70;;
9413;SDS011;4746;35.664;139.738;2022-08-11T01:27:26;5.18;;;1.35;;
9413;SDS011;4746;35.664;139.738;2022-08-11T01:33:53;5.10;;;1.40;;
9413;SDS011;4746;35.664;139.738;2022-08-11T01:36:54;4.07;;;1.48;;
9413;SDS011;4746;35.664;139.738;2022-08-11T01:40:13;4.07;;;1.40;;
9413;SDS011;4746;35.664;139.738;2022-08-11T01:47:25;3.75;;;1.20;;
9413;SDS011;4746;35.664;139.738;2022-08-11T02:03:28;9.50;;;3.63;;
9413;SDS011;4746;35.664;139.738;2022-08-11T02:05:55;7.35;;;2.20;;
9413;SDS011;4746;35.664;139.738;2022-08-11T02:15:26;4.32;;;1.83;;
9413;SDS011;4746;35.664;139.738;2022-08-11T02:18:09;5.22;;;1.90;;
9413;SDS011;4746;35.664;139.738;2022-08-11T02:21:11;8.00;;;2.00;;
9413;SDS011;4746;35.664;139.738;2022-08-11T02:24:13;5.60;;;2.58;;
9413;SDS011;4746;35.664;139.738;2022-08-11T02:27:22;6.85;;;2.58;;
9413;SDS011;4746;35.664;139.738;2022-08-11T02:30:13;4.13;;;1.63;;
9413;SDS011;4746;35.664;139.738;2022-08-11T02:36:02;7.15;;;2.40;;
9413;SDS011;4746;35.664;139.738;2022-08-11T02:39:07;3.78;;;1.80;;
9413;SDS011;4746;35.664;139.738;2022-08-11T02:41:51;3.03;;;1.48;;
9413;SDS011;4746;35.664;139.738;2022-08-11T02:44:56;3.30;;;1.02;;
9413;SDS011;4746;35.664;139.738;2022-08-11T02:50:42;3.80;;;1.80;;
9413;SDS011;4746;35.664;139.738;2022-08-11T02:53:45;4.60;;;1.58;;
9413;SDS011;4746;35.664;139.738;2022-08-11T02:59:31;6.20;;;2.65;;
9413;SDS011;4746;35.664;139.738;2022-08-11T03:11:19;5.43;;;2.42;;
9413;SDS011;4746;35.664;139.738;2022-08-11T03:14:26;7.22;;;2.70;;
9413;SDS011;4746;35.664;139.738;2022-08-11T03:20:52;3.05;;;1.95;;
9413;SDS011;4746;35.664;139.738;2022-08-11T03:23:38;4.88;;;1.77;;
9413;SDS011;4746;35.664;139.738;2022-08-11T03:26:24;5.82;;;2.13;;
9413;SDS011;4746;35.664;139.738;2022-08-11T03:36:03;6.35;;;2.60;;
9413;SDS011;4746;35.664;139.738;2022-08-11T03:41:37;6.25;;;2.28;;
9413;SDS011;4746;35.664;139.738;2022-08-11T04:08:46;8.48;;;4.18;;
9413;SDS011;4746;35.664;139.738;2022-08-11T04:18:00;2.80;;;2.53;;
9413;SDS011;4746;35.664;139.738;2022-08-11T04:24:34;4.53;;;2.90;;
9413;SDS011;4746;35.664;139.738;2022-08-11T04:27:47;4.20;;;3.22;;
9413;SDS011;4746;35.664;139.738;2022-08-11T04:33:33;4.63;;;2.75;;
9413;SDS011;4746;35.664;139.738;2022-08-11T04:49:18;2.90;;;1.50;;
9413;SDS011;4746;35.664;139.738;2022-08-11T05:17:10;3.97;;;2.92;;
9413;SDS011;4746;35.664;139.738;2022-08-11T05:20:10;4.63;;;3.00;;
9413;SDS011;4746;35.664;139.738;2022-08-11T05:22:56;4.30;;;3.20;;
9413;SDS011;4746;35.664;139.738;2022-08-11T05:25:55;3.28;;;2.97;;
9413;SDS011;4746;35.664;139.738;2022-08-11T05:28:55;5.00;;;3.03;;
9413;SDS011;4746;35.664;139.738;2022-08-11T05:31:50;3.45;;;3.25;;
9413;SDS011;4746;35.664;139.738;2022-08-11T05:34:46;3.30;;;3.00;;
9413;SDS011;4746;35.664;139.738;2022-08-11T05:37:21;2.83;;;2.63;;
9413;SDS011;4746;35.664;139.738;2022-08-11T05:40:19;4.13;;;2.88;;
9413;SDS011;4746;35.664;139.738;2022-08-11T05:43:11;2.35;;;2.20;;
9413;SDS011;4746;35.664;139.738;2022-08-11T05:46:00;2.45;;;2.22;;
9413;SDS011;4746;35.664;139.738;2022-08-11T05:48:49;2.58;;;1.92;;
9413;SDS011;4746;35.664;139.738;2022-08-11T05:51:40;2.40;;;2.20;;
9413;SDS011;4746;35.664;139.738;2022-08-11T05:54:28;2.50;;;2.22;;
9413;SDS011;4746;35.664;139.738;2022-08-11T05:57:18;2.42;;;2.05;;
9413;SDS011;4746;35.664;139.738;2022-08-11T05:59:56;2.08;;;1.38;;
9413;SDS011;4746;35.664;139.738;2022-08-11T06:02:29;2.65;;;1.60;;
9413;SDS011;4746;35.664;139.738;2022-08-11T06:04:58;2.15;;;1.25;;
9413;SDS011;4746;35.664;139.738;2022-08-11T06:07:28;3.33;;;1.50;;
9413;SDS011;4746;35.664;139.738;2022-08-11T06:09:57;3.08;;;1.70;;
9413;SDS011;4746;35.664;139.738;2022-08-11T06:12:27;2.53;;;1.42;;
9413;SDS011;4746;35.664;139.738;2022-08-11T06:15:10;2.67;;;1.35;;
9413;SDS011;4746;35.664;139.738;2022-08-11T06:17:45;3.60;;;1.42;;
9413;SDS011;4746;35.664;139.738;2022-08-11T06:20:15;1.55;;;1.45;;
9413;SDS011;4746;35.664;139.738;2022-08-11T06:22:45;2.38;;;1.30;;
9413;SDS011;4746;35.664;139.738;2022-08-11T06:25:29;1.52;;;1.08;;
9413;SDS011;4746;35.664;139.738;2022-08-11T06:28:02;1.52;;;1.02;;
9413;SDS011;4746;35.664;139.738;2022-08-11T06:30:39;1.05;;;0.90;;
9413;SDS011;4746;35.664;139.738;2022-08-11T06:33:13;1.90;;;1.00;;
9413;SDS011;4746;35.664;139.738;2022-08-11T06:36:05;1.98;;;1.10;;
9413;SDS011;4746;35.664;139.738;2022-08-11T06:41:20;2.63;;;1.50;;
9413;SDS011;4746;35.664;139.738;2022-08-11T06:49:12;3.03;;;1.48;;
9413;SDS011;4746;35.664;139.738;2022-08-11T06:52:02;3.47;;;1.45;;
9413;SDS011;4746;35.664;139.738;2022-08-11T06:54:38;2.67;;;1.40;;
9413;SDS011;4746;35.664;139.738;2022-08-11T06:57:19;2.38;;;1.40;;
9413;SDS011;4746;35.664;139.738;2022-08-11T07:00:06;2.83;;;1.42;;
9413;SDS011;4746;35.664;139.738;2022-08-11T07:03:15;2.05;;;0.90;;
9413;SDS011;4746;35.664;139.738;2022-08-11T07:05:54;2.20;;;1.40;;
9413;SDS011;4746;35.664;139.738;2022-08-11T07:09:06;1.83;;;1.15;;
9413;SDS011;4746;35.664;139.738;2022-08-11T07:15:40;3.88;;;1.50;;
9413;SDS011;4746;35.664;139.738;2022-08-11T07:18:12;3.13;;;1.50;;
9413;SDS011;4746;35.664;139.738;2022-08-11T07:21:28;4.00;;;1.67;;
9413;SDS011;4746;35.664;139.738;2022-08-11T07:24:24;4.63;;;1.77;;
9413;SDS011;4746;35.664;139.738;2022-08-11T07:27:16;5.15;;;1.83;;
9413;SDS011;4746;35.664;139.738;2022-08-11T07:30:09;3.83;;;1.80;;
9413;SDS011;4746;35.664;139.738;2022-08-11T07:32:44;4.03;;;1.90;;
9413;SDS011;4746;35.664;139.738;2022-08-11T07:35:34;3.95;;;1.80;;
9413;SDS011;4746;35.664;139.738;2022-08-11T07:38:13;11.02;;;2.30;;
9413;SDS011;4746;35.664;139.738;2022-08-11T07:41:08;4.03;;;2.00;;
9413;SDS011;4746;35.664;139.738;2022-08-11T07:43:38;6.45;;;2.28;;
9413;SDS011;4746;35.664;139.738;2022-08-11T07:46:07;4.95;;;2.03;;
9413;SDS011;4746;35.664;139.738;2022-08-11T07:48:55;4.13;;;2.08;;
9413;SDS011;4746;35.664;139.738;2022-08-11T07:51:42;5.05;;;2.22;;
9413;SDS011;4746;35.664;139.738;2022-08-11T07:54:29;4.05;;;2.28;;
9413;SDS011;4746;35.664;139.738;2022-08-11T07:56:57;5.55;;;2.22;;
9413;SDS011;4746;35.664;139.738;2022-08-11T07:59:25;4.60;;;2.45;;
9413;SDS011;4746;35.664;139.738;2022-08-11T08:02:11;3.30;;;1.95;;
9413;SDS011;4746;35.664;139.738;2022-08-11T08:04:57;3.88;;;1.98;;
9413;SDS011;4746;35.664;139.738;2022-08-11T08:07:43;4.80;;;1.70;;
9413;SDS011;4746;35.664;139.738;2022-08-11T08:10:30;6.47;;;2.35;;
9413;SDS011;4746;35.664;139.738;2022-08-11T08:13:16;3.47;;;1.90;;
9413;SDS011;4746;35.664;139.738;2022-08-11T08:16:03;3.35;;;1.52;;
9413;SDS011;4746;35.664;139.738;2022-08-11T08:18:49;4.90;;;1.75;;
9413;SDS011;4746;35.664;139.738;2022-08-11T08:21:17;3.03;;;1.77;;
9413;SDS011;4746;35.664;139.738;2022-08-11T08:23:45;2.25;;;1.35;;
9413;SDS011;4746;35.664;139.738;2022-08-11T08:26:13;4.28;;;1.73;;
9413;SDS011;4746;35.664;139.738;2022-08-11T08:29:02;2.33;;;1.10;;
9413;SDS011;4746;35.664;139.738;2022-08-11T08:31:50;3.00;;;1.10;;
9413;SDS011;4746;35.664;139.738;2022-08-11T08:34:21;1.38;;;0.80;;
9413;SDS011;4746;35.664;139.738;2022-08-11T08:36:50;1.40;;;0.95;;
9413;SDS011;4746;35.664;139.738;2022-08-11T08:39:20;1.92;;;1.10;;
9413;SDS011;4746;35.664;139.738;2022-08-11T08:41:53;3.45;;;1.30;;
9413;SDS011;4746;35.664;139.738;2022-08-11T08:44:26;4.32;;;1.48;;
9413;SDS011;4746;35.664;139.738;2022-08-11T08:46:58;2.75;;;1.33;;
9413;SDS011;4746;35.664;139.738;2022-08-11T08:49:34;5.78;;;1.20;;
9413;SDS011;4746;35.664;139.738;2022-08-11T08:52:07;3.63;;;1.50;;
9413;SDS011;4746;35.664;139.738;2022-08-11T08:54:39;4.95;;;1.67;;
9413;SDS011;4746;35.664;139.738;2022-08-11T08:57:10;4.25;;;1.80;;
9413;SDS011;4746;35.664;139.738;2022-08-11T08:59:43;4.88;;;1.58;;
9413;SDS011;4746;35.664;139.738;2022-08-11T09:02:14;5.10;;;1.75;;
9413;SDS011;4746;35.664;139.738;2022-08-11T09:04:45;5.22;;;1.65;;
9413;SDS011;4746;35.664;139.738;2022-08-11T09:07:15;5.50;;;1.83;;
9413;SDS011;4746;35.664;139.738;2022-08-11T09:09:51;4.43;;;1.98;;
9413;SDS011;4746;35.664;139.738;2022-08-11T09:12:27;4.53;;;1.83;;
9413;SDS011;4746;35.664;139.738;2022-08-11T09:14:57;4.32;;;1.73;;
9413;SDS011;4746;35.664;139.738;2022-08-11T09:17:38;4.88;;;1.70;;
9413;SDS011;4746;35.664;139.738;2022-08-11T09:22:50;6.30;;;2.03;;
9413;SDS011;4746;35.664;139.738;2022-08-11T09:25:40;4.68;;;2.03;;
9413;SDS011;4746;35.664;139.738;2022-08-11T09:28:27;5.35;;;1.67;;
9413;SDS011;4746;35.664;139.738;2022-08-11T09:30:57;5.30;;;1.92;;
9413;SDS011;4746;35.664;139.738;2022-08-11T09:33:27;6.82;;;1.75;;
9413;SDS011;4746;35.664;139.738;2022-08-11T09:35:58;2.90;;;1.70;;
9413;SDS011;4746;35.664;139.738;2022-08-11T09:38:46;3.60;;;1.30;;
9413;SDS011;4746;35.664;139.738;2022-08-11T09:41:34;3.85;;;1.83;;
9413;SDS011;4746;35.664;139.738;2022-08-11T09:44:05;4.38;;;1.95;;
9413;SDS011;4746;35.664;139.738;2022-08-11T09:46:52;5.43;;;1.90;;
9413;SDS011;4746;35.664;139.738;2022-08-11T09:49:23;4.38;;;1.55;;
9413;SDS011;4746;35.664;139.738;2022-08-11T09:51:53;3.75;;;1.20;;
9413;SDS011;4746;35.664;139.738;2022-08-11T09:54:22;6.25;;;2.22;;
9413;SDS011;4746;35.664;139.738;2022-08-11T09:56:52;6.30;;;2.28;;
9413;SDS011;4746;35.664;139.738;2022-08-11T09:59:37;5.65;;;2.22;;
9413;SDS011;4746;35.664;139.738;2022-08-11T10:02:06;5.57;;;1.85;;
9413;SDS011;4746;35.664;139.738;2022-08-11T10:04:42;6.50;;;2.20;;
9413;SDS011;4746;35.664;139.738;2022-08-11T10:07:12;6.05;;;2.22;;
9413;SDS011;4746;35.664;139.738;2022-08-11T10:10:00;4.63;;;1.90;;
9413;SDS011;4746;35.664;139.738;2022-08-11T10:12:31;6.82;;;2.00;;
9413;SDS011;4746;35.664;139.738;2022-08-11T10:15:09;9.00;;;1.80;;
9413;SDS011;4746;35.664;139.738;2022-08-11T10:18:09;7.15;;;2.08;;
9413;SDS011;4746;35.664;139.738;2022-08-11T10:21:02;8.13;;;2.30;;
9413;SDS011;4746;35.664;139.738;2022-08-11T10:23:37;6.40;;;2.25;;
9413;SDS011;4746;35.664;139.738;2022-08-11T10:26:28;4.75;;;1.85;;
9413;SDS011;4746;35.664;139.738;2022-08-11T10:29:15;9.15;;;2.67;;
9413;SDS011;4746;35.664;139.738;2022-08-11T10:32:02;6.68;;;1.65;;
9413;SDS011;4746;35.664;139.738;2022-08-11T10:35:02;8.63;;;2.22;;
9413;SDS011;4746;35.664;139.738;2022-08-11T10:37:33;6.68;;;2.35;;
9413;SDS011;4746;35.664;139.738;2022-08-11T10:40:03;8.07;;;3.03;;
9413;SDS011;4746;35.664;139.738;2022-08-11T10:42:34;8.73;;;2.60;;
9413;SDS011;4746;35.664;139.738;2022-08-11T10:45:21;4.75;;;2.17;;
9413;SDS011;4746;35.664;139.738;2022-08-11T10:48:08;7.47;;;2.35;;
9413;SDS011;4746;35.664;139.738;2022-08-11T10:50:37;5.60;;;2.30;;
9413;SDS011;4746;35.664;139.738;2022-08-11T10:53:23;6.40;;;2.28;;
9413;SDS011;4746;35.664;139.738;2022-08-11T10:56:09;8.75;;;2.47;;
9413;SDS011;4746;35.664;139.738;2022-08-11T10:58:55;8.73;;;2.42;;
9413;SDS011;4746;35.664;139.738;2022-08-11T11:01:25;10.30;;;2.42;;
9413;SDS011;4746;35.664;139.738;2022-08-11T11:03:59;8.40;;;2.53;;
9413;SDS011;4746;35.664;139.738;2022-08-11T11:12:18;8.38;;;2.55;;
9413;SDS011;4746;35.664;139.738;2022-08-11T11:15:15;6.43;;;2.60;;
9413;SDS011;4746;35.664;139.738;2022-08-11T11:18:06;6.60;;;1.67;;
9413;SDS011;4746;35.664;139.738;2022-08-11T11:20:41;5.22;;;1.73;;
9413;SDS011;4746;35.664;139.738;2022-08-11T11:29:39;6.55;;;2.10;;
9413;SDS011;4746;35.664;139.738;2022-08-11T11:32:36;5.55;;;1.83;;
9413;SDS011;4746;35.664;139.738;2022-08-11T11:35:38;4.53;;;1.65;;
9413;SDS011;4746;35.664;139.738;2022-08-11T11:38:40;6.20;;;2.25;;
9413;SDS011;4746;35.664;139.738;2022-08-11T11:41:08;9.45;;;2.30;;
9413;SDS011;4746;35.664;139.738;2022-08-11T11:43:53;8.10;;;2.72;;
9413;SDS011;4746;35.664;139.738;2022-08-11T11:46:26;6.57;;;2.78;;
9413;SDS011;4746;35.664;139.738;2022-08-11T11:48:56;8.82;;;2.40;;
9413;SDS011;4746;35.664;139.738;2022-08-11T11:51:32;7.10;;;2.65;;
9413;SDS011;4746;35.664;139.738;2022-08-11T11:54:01;10.80;;;3.15;;
9413;SDS011;4746;35.664;139.738;2022-08-11T11:56:30;9.05;;;3.13;;
9413;SDS011;4746;35.664;139.738;2022-08-11T11:58:59;11.43;;;2.60;;
9413;SDS011;4746;35.664;139.738;2022-08-11T12:01:46;6.53;;;2.75;;
9413;SDS011;4746;35.664;139.738;2022-08-11T12:04:14;4.57;;;2.53;;
9413;SDS011;4746;35.664;139.738;2022-08-11T12:06:45;7.13;;;2.05;;
9413;SDS011;4746;35.664;139.738;2022-08-11T12:09:13;5.00;;;2.13;;
9413;SDS011;4746;35.664;139.738;2022-08-11T12:11:47;5.45;;;1.90;;
9413;SDS011;4746;35.664;139.738;2022-08-11T12:14:34;5.53;;;2.00;;
9413;SDS011;4746;35.664;139.738;2022-08-11T12:17:02;5.03;;;1.88;;
9413;SDS011;4746;35.664;139.738;2022-08-11T12:19:30;8.00;;;2.03;;
9413;SDS011;4746;35.664;139.738;2022-08-11T12:21:58;8.20;;;2.22;;
9413;SDS011;4746;35.664;139.738;2022-08-11T12:24:44;7.68;;;1.92;;
9413;SDS011;4746;35.664;139.738;2022-08-11T12:27:31;7.88;;;2.35;;
9413;SDS011;4746;35.664;139.738;2022-08-11T12:30:00;11.25;;;2.38;;
9413;SDS011;4746;35.664;139.738;2022-08-11T12:32:36;8.63;;;2.10;;
9413;SDS011;4746;35.664;139.738;2022-08-11T12:35:06;7.55;;;2.42;;
9413;SDS011;4746;35.664;139.738;2022-08-11T12:37:38;8.02;;;2.20;;
9413;SDS011;4746;35.664;139.738;2022-08-11T12:40:13;6.88;;;2.13;;
9413;SDS011;4746;35.664;139.738;2022-08-11T12:43:06;10.23;;;2.20;;
9413;SDS011;4746;35.664;139.738;2022-08-11T12:46:03;8.55;;;2.30;;
9413;SDS011;4746;35.664;139.738;2022-08-11T12:49:12;9.95;;;1.98;;
9413;SDS011;4746;35.664;139.738;2022-08-11T12:52:05;8.25;;;2.15;;
9413;SDS011;4746;35.664;139.738;2022-08-11T12:57:25;10.48;;;2.35;;
9413;SDS011;4746;35.664;139.738;2022-08-11T13:00:16;7.00;;;2.00;;
9413;SDS011;4746;35.664;139.738;2022-08-11T13:03:04;5.78;;;1.77;;
9413;SDS011;4746;35.664;139.738;2022-08-11T13:05:55;7.70;;;2.47;;
9413;SDS011;4746;35.664;139.738;2022-08-11T13:08:29;8.07;;;2.63;;
9413;SDS011;4746;35.664;139.738;2022-08-11T13:11:01;8.52;;;1.88;;
9413;SDS011;4746;35.664;139.738;2022-08-11T13:13:49;11.27;;;2.42;;
9413;SDS011;4746;35.664;139.738;2022-08-11T13:16:30;8.35;;;2.33;;
9413;SDS011;4746;35.664;139.738;2022-08-11T13:19:20;9.80;;;2.22;;
9413;SDS011;4746;35.664;139.738;2022-08-11T13:21:49;8.40;;;2.30;;
9413;SDS011;4746;35.664;139.738;2022-08-11T13:24:18;9.30;;;2.42;;
9413;SDS011;4746;35.664;139.738;2022-08-11T13:26:48;8.90;;;2.42;;
9413;SDS011;4746;35.664;139.738;2022-08-11T13:29:17;11.48;;;2.75;;
9413;SDS011;4746;35.664;139.738;2022-08-11T13:31:48;8.90;;;3.10;;
9413;SDS011;4746;35.664;139.738;2022-08-11T13:34:19;11.07;;;2.55;;
9413;SDS011;4746;35.664;139.738;2022-08-11T13:36:50;7.18;;;2.13;;
9413;SDS011;4746;35.664;139.738;2022-08-11T13:39:21;11.00;;;3.00;;
9413;SDS011;4746;35.664;139.738;2022-08-11T13:41:53;7.57;;;2.05;;
9413;SDS011;4746;35.664;139.738;2022-08-11T13:44:27;8.27;;;2.45;;
9413;SDS011;4746;35.664;139.738;2022-08-11T13:47:01;9.45;;;2.25;;
9413;SDS011;4746;35.664;139.738;2022-08-11T13:49:34;8.80;;;2.42;;
9413;SDS011;4746;35.664;139.738;2022-08-11T13:52:05;8.88;;;2.50;;
9413;SDS011;4746;35.664;139.738;2022-08-11T13:54:41;10.57;;;2.30;;
9413;SDS011;4746;35.664;139.738;2022-08-11T13:57:13;10.13;;;2.20;;
9413;SDS011;4746;35.664;139.738;2022-08-11T13:59:44;14.57;;;2.95;;
9413;SDS011;4746;35.664;139.738;2022-08-11T14:02:34;11.23;;;2.72;;
9413;SDS011;4746;35.664;139.738;2022-08-11T14:05:19;12.25;;;2.72;;
9413;SDS011;4746;35.664;139.738;2022-08-11T14:07:55;9.73;;;2.17;;
9413;SDS011;4746;35.664;139.738;2022-08-11T14:10:27;10.05;;;2.53;;
9413;SDS011;4746;35.664;139.738;2022-08-11T14:13:00;11.65;;;2.95;;
9413;SDS011;4746;35.664;139.738;2022-08-11T14:15:54;11.55;;;2.60;;
9413;SDS011;4746;35.664;139.738;2022-08-11T14:18:29;10.57;;;2.70;;
9413;SDS011;4746;35.664;139.738;2022-08-11T14:21:00;10.63;;;2.65;;
9413;SDS011;4746;35.664;139.738;2022-08-11T14:23:52;13.43;;;2.72;;
9413;SDS011;4746;35.664;139.738;2022-08-11T14:26:24;9.80;;;2.60;;
9413;SDS011;4746;35.664;139.738;2022-08-11T14:29:06;8.95;;;2.70;;
9413;SDS011;4746;35.664;139.738;2022-08-11T14:31:48;8.15;;;2.33;;
9413;SDS011;4746;35.664;139.738;2022-08-11T14:34:29;8.73;;;2.75;;
9413;SDS011;4746;35.664;139.738;2022-08-11T14:37:00;11.00;;;2.40;;
9413;SDS011;4746;35.664;139.738;2022-08-11T14:39:45;9.50;;;2.65;;
9413;SDS011;4746;35.664;139.738;2022-08-11T14:42:21;10.82;;;2.95;;
9413;SDS011;4746;35.664;139.738;2022-08-11T14:45:10;7.05;;;1.90;;
9413;SDS011;4746;35.664;139.738;2022-08-11T14:48:04;9.02;;;2.58;;
9413;SDS011;4746;35.664;139.738;2022-08-11T14:50:35;7.93;;;2.15;;
9413;SDS011;4746;35.664;139.738;2022-08-11T14:53:05;8.73;;;2.72;;
9413;SDS011;4746;35.664;139.738;2022-08-11T14:55:40;8.75;;;2.03;;
9413;SDS011;4746;35.664;139.738;2022-08-11T14:58:29;6.50;;;2.22;;
9413;SDS011;4746;35.664;139.738;2022-08-11T15:01:01;12.02;;;2.67;;
9413;SDS011;4746;35.664;139.738;2022-08-11T15:03:52;11.13;;;3.00;;
9413;SDS011;4746;35.664;139.738;2022-08-11T15:06:24;12.75;;;2.60;;
9413;SDS011;4746;35.664;139.738;2022-08-11T15:08:53;10.10;;;1.95;;
9413;SDS011;4746;35.664;139.738;2022-08-11T15:11:23;8.77;;;2.33;;
9413;SDS011;4746;35.664;139.738;2022-08-11T15:14:14;7.10;;;2.60;;
9413;SDS011;4746;35.664;139.738;2022-08-11T15:17:04;6.82;;;2.45;;
9413;SDS011;4746;35.664;139.738;2022-08-11T15:19:34;9.77;;;2.10;;
9413;SDS011;4746;35.664;139.738;2022-08-11T15:22:24;8.55;;;2.25;;
9413;SDS011;4746;35.664;139.738;2022-08-11T15:25:10;8.18;;;2.15;;
9413;SDS011;4746;35.664;139.738;2022-08-11T15:27:39;9.50;;;2.40;;
9413;SDS011;4746;35.664;139.738;2022-08-11T15:30:29;8.73;;;2.70;;
9413;SDS011;4746;35.664;139.738;2022-08-11T15:33:16;10.43;;;2.50;;
9413;SDS011;4746;35.664;139.738;2022-08-11T15:36:04;9.60;;;2.40;;
9413;SDS011;4746;35.664;139.738;2022-08-11T15:39:01;10.23;;;2.35;;
9413;SDS011;4746;35.664;139.738;2022-08-11T15:41:53;8.05;;;2.85;;
9413;SDS011;4746;35.664;139.738;2022-08-11T15:44:52;8.68;;;2.25;;
9413;SDS011;4746;35.664;139.738;2022-08-11T15:48:17;10.27;;;2.85;;
9413;SDS011;4746;35.664;139.738;2022-08-11T15:50:40;14.07;;;3.10;;
9413;SDS011;4746;35.664;139.738;2022-08-11T15:53:19;10.18;;;2.45;;
9413;SDS011;4746;35.664;139.738;2022-08-11T15:56:03;14.32;;;3.15;;
9413;SDS011;4746;35.664;139.738;2022-08-11T15:58:35;7.50;;;2.30;;
9413;SDS011;4746;35.664;139.738;2022-08-11T16:01:29;8.55;;;2.60;;
9413;SDS011;4746;35.664;139.738;2022-08-11T16:04:17;13.50;;;2.92;;
9413;SDS011;4746;35.664;139.738;2022-08-11T16:09:37;11.77;;;3.78;;
9413;SDS011;4746;35.664;139.738;2022-08-11T16:12:28;14.63;;;2.58;;
9413;SDS011;4746;35.664;139.738;2022-08-11T16:15:53;10.30;;;3.05;;
9413;SDS011;4746;35.664;139.738;2022-08-11T16:18:53;14.65;;;3.53;;
9413;SDS011;4746;35.664;139.738;2022-08-11T16:21:31;10.50;;;2.97;;
9413;SDS011;4746;35.664;139.738;2022-08-11T16:24:07;11.20;;;2.45;;
9413;SDS011;4746;35.664;139.738;2022-08-11T16:26:38;7.78;;;1.92;;
9413;SDS011;4746;35.664;139.738;2022-08-11T16:29:09;10.25;;;2.42;;
9413;SDS011;4746;35.664;139.738;2022-08-11T16:31:37;8.60;;;2.15;;
9413;SDS011;4746;35.664;139.738;2022-08-11T16:34:27;5.60;;;1.65;;
9413;SDS011;4746;35.664;139.738;2022-08-11T16:37:14;9.70;;;2.47;;
9413;SDS011;4746;35.664;139.738;2022-08-11T16:40:02;8.38;;;2.25;;
9413;SDS011;4746;35.664;139.738;2022-08-11T16:42:31;7.68;;;2.13;;
9413;SDS011;4746;35.664;139.738;2022-08-11T16:45:18;8.23;;;2.13;;
9413;SDS011;4746;35.664;139.738;2022-08-11T16:48:20;5.15;;;1.80;;
9413;SDS011;4746;35.664;139.738;2022-08-11T16:50:53;5.40;;;1.65;;
9413;SDS011;4746;35.664;139.738;2022-08-11T16:53:21;6.30;;;1.77;;
9413;SDS011;4746;35.664;139.738;2022-08-11T16:55:49;10.13;;;2.28;;
9413;SDS011;4746;35.664;139.738;2022-08-11T16:58:20;6.03;;;1.90;;
9413;SDS011;4746;35.664;139.738;2022-08-11T17:01:08;6.95;;;1.63;;
9413;SDS011;4746;35.664;139.738;2022-08-11T17:03:39;7.05;;;1.65;;
9413;SDS011;4746;35.664;139.738;2022-08-11T17:06:32;7.40;;;2.03;;
9413;SDS011;4746;35.664;139.738;2022-08-11T17:09:21;7.10;;;1.80;;
9413;SDS011;4746;35.664;139.738;2022-08-11T17:12:13;7.28;;;2.28;;
9413;SDS011;4746;35.664;139.738;2022-08-11T17:15:02;6.88;;;1.90;;
9413;SDS011;4746;35.664;139.738;2022-08-11T17:17:56;6.38;;;1.80;;
9413;SDS011;4746;35.664;139.738;2022-08-11T17:20:28;8.40;;;2.10;;
9413;SDS011;4746;35.664;139.738;2022-08-11T17:22:59;10.30;;;2.10;;
9413;SDS011;4746;35.664;139.738;2022-08-11T17:25:48;9.43;;;2.53;;
9413;SDS011;4746;35.664;139.738;2022-08-11T17:28:19;9.70;;;2.70;;
9413;SDS011;4746;35.664;139.738;2022-08-11T17:30:48;5.68;;;1.90;;
9413;SDS011;4746;35.664;139.738;2022-08-11T17:33:36;8.02;;;1.85;;
9413;SDS011;4746;35.664;139.738;2022-08-11T17:36:22;9.75;;;2.35;;
9413;SDS011;4746;35.664;139.738;2022-08-11T17:38:50;9.43;;;2.63;;
9413;SDS011;4746;35.664;139.738;2022-08-11T17:41:18;8.30;;;2.63;;
9413;SDS011;4746;35.664;139.738;2022-08-11T17:44:05;7.93;;;2.20;;
9413;SDS011;4746;35.664;139.738;2022-08-11T17:46:52;9.93;;;2.17;;
9413;SDS011;4746;35.664;139.738;2022-08-11T17:49:38;10.38;;;2.78;;
9413;SDS011;4746;35.664;139.738;2022-08-11T17:52:07;11.43;;;2.40;;
9413;SDS011;4746;35.664;139.738;2022-08-11T17:54:55;10.98;;;2.85;;
9413;SDS011;4746;35.664;139.738;2022-08-11T17:57:42;13.00;;;2.60;;
9413;SDS011;4746;35.664;139.738;2022-08-11T18:00:28;11.82;;;2.92;;
9413;SDS011;4746;35.664;139.738;2022-08-11T18:02:56;10.48;;;2.42;;
9413;SDS011;4746;35.664;139.738;2022-08-11T18:05:45;11.07;;;2.65;;
9413;SDS011;4746;35.664;139.738;2022-08-11T18:08:14;11.00;;;2.40;;
9413;SDS011;4746;35.664;139.738;2022-08-11T18:11:03;11.10;;;2.38;;
9413;SDS011;4746;35.664;139.738;2022-08-11T18:13:50;8.10;;;2.30;;
9413;SDS011;4746;35.664;139.738;2022-08-11T18:16:39;10.07;;;2.28;;
9413;SDS011;4746;35.664;139.738;2022-08-11T18:19:25;11.20;;;2.75;;
9413;SDS011;4746;35.664;139.738;2022-08-11T18:22:12;7.60;;;2.55;;
9413;SDS011;4746;35.664;139.738;2022-08-11T18:25:13;7.95;;;2.63;;
9413;SDS011;4746;35.664;139.738;2022-08-11T18:28:14;12.88;;;3.47;;
9413;SDS011;4746;35.664;139.738;2022-08-11T18:31:12;11.48;;;3.67;;
9413;SDS011;4746;35.664;139.738;2022-08-11T18:34:03;10.70;;;3.25;;
9413;SDS011;4746;35.664;139.738;2022-08-11T18:39:55;13.68;;;3.45;;
9413;SDS011;4746;35.664;139.738;2022-08-11T18:42:59;15.00;;;3.63;;
9413;SDS011;4746;35.664;139.738;2022-08-11T18:45:51;15.60;;;3.47;;
9413;SDS011;4746;35.664;139.738;2022-08-11T18:48:46;14.65;;;3.22;;
9413;SDS011;4746;35.664;139.738;2022-08-11T18:51:47;14.38;;;3.75;;
9413;SDS011;4746;35.664;139.738;2022-08-11T18:54:39;11.05;;;2.95;;
9413;SDS011;4746;35.664;139.738;2022-08-11T18:57:30;11.00;;;3.05;;
9413;SDS011;4746;35.664;139.738;2022-08-11T19:00:22;11.55;;;2.45;;
9413;SDS011;4746;35.664;139.738;2022-08-11T19:03:10;12.05;;;3.28;;
9413;SDS011;4746;35.664;139.738;2022-08-11T19:06:00;9.25;;;2.65;;
9413;SDS011;4746;35.664;139.738;2022-08-11T19:08:59;9.73;;;2.67;;
9413;SDS011;4746;35.664;139.738;2022-08-11T19:11:49;7.43;;;2.10;;
9413;SDS011;4746;35.664;139.738;2022-08-11T19:14:37;9.57;;;2.40;;
9413;SDS011;4746;35.664;139.738;2022-08-11T19:17:26;8.65;;;2.42;;
9413;SDS011;4746;35.664;139.738;2022-08-11T19:20:19;11.32;;;2.22;;
9413;SDS011;4746;35.664;139.738;2022-08-11T19:23:09;8.15;;;2.50;;
9413;SDS011;4746;35.664;139.738;2022-08-11T19:26:02;11.15;;;2.53;;
9413;SDS011;4746;35.664;139.738;2022-08-11T19:28:49;8.43;;;2.53;;
9413;SDS011;4746;35.664;139.738;2022-08-11T19:31:36;13.63;;;2.97;;
9413;SDS011;4746;35.664;139.738;2022-08-11T19:34:23;9.07;;;2.17;;
9413;SDS011;4746;35.664;139.738;2022-08-11T19:37:10;12.73;;;3.53;;